Aeroporto :
LOGIN :

Iscrizione | Disclaimer

   EN    FR    IT 

 










Sommario :    VFR   VFR Marginale   IFR   IFR Intensivo   IFR Molto Intensivo
Visibilità : 
Base nubi : 
>= 8 km
>= 3000ft
5 / 8 km
1000 / 3000 ft
1500m / 5 km
500 / 1000 ft
800 / 1500m
200 / 500 ft
< 800m
< 200 ft
Simboli :   Temporali  Nebbia  Neve Forte  Precipitazioni Forti  Vento > 20 kt
SIGMETs :   Varie  Temporali  Ghiacco  Turbolenza  Onda orograficha  Ceneri Vulcaniche






- Altitudine del aeroporto : 776 ft
- Codice IATA : RMS


ETAR - Ramstein Air Base

ULTIMO METAR :
  • 220156Z AUTO 25006KT 9999 BKN017 BKN065 BKN100 03/03 A3049 RMK AO2 CIG 017V065 BKN017 V SCT SLP338 T00330033 $

METARs OBSOLETI :
  • 220056Z AUTO 27008KT 9999 OVC040 03/03 A3049 RMK AO2 SLP339 T00310031 $
  • 212356Z AUTO 26008KT 9999 OVC039 03/03 A3049 RMK AO2 SLP339 60000 T00320032 10036 20032 55004
  • 212336Z AUTO 25007KT 9999 SCT016 OVC041 03/03 A3049 RMK AO2 SLP339 $

TAF TAF ETAR
Valido dal 22 a 02 ore il 23 a 08 ore UTC


220200Z 2202/2308 27009KT 9999 BKN015 620408 QNH3048INS
BECMG 2211/2212 28009KT 9999 BKN020 QNH3050INS
BECMG 2219/2220 VRB06KT 5000 BR BKN008 QNH3051INS TX06/2213Z TN02/2204Z



MetMap, La meteo Aeronautica in un colpo d'occhio ! - Copyright ORBIFLY Dicembre 2007 - Disclaimer

ORBIFLY MET'MAP TEAM :

Programmazione e sviluppo : Alexandra Zaïnal
Concezione : Baudouin d'Aumeries
Aiuto per la programmazione : Marc-Olivier Méhu
Supporto tecnico e logistico : Manuel Goepfert
Aiuto per la traduzione : Arnaldo La Scala

Contatto : metmap@orbifly.com




FONTI E CREDITI :

   NOAA